sensor_id;sensor_type;location;lat;lon;timestamp;pressure;altitude;pressure_sealevel;temperature;humidity
41102;BME280;26845;50.190;19.178;2023-03-14T00:01:58;97213.63;;;7.11;60.04
41102;BME280;26845;50.190;19.178;2023-03-14T00:04:25;97218.22;;;7.09;60.34
41102;BME280;26845;50.190;19.178;2023-03-14T00:06:52;97215.77;;;7.05;60.45
41102;BME280;26845;50.190;19.178;2023-03-14T00:09:19;97206.87;;;6.98;60.57
41102;BME280;26845;50.190;19.178;2023-03-14T00:11:45;97210.40;;;7.01;60.79
41102;BME280;26845;50.190;19.178;2023-03-14T00:14:12;97201.42;;;7.06;61.11
41102;BME280;26845;50.190;19.178;2023-03-14T00:16:40;97191.39;;;7.11;61.02
41102;BME280;26845;50.190;19.178;2023-03-14T00:19:07;97183.48;;;7.11;61.08
41102;BME280;26845;50.190;19.178;2023-03-14T00:21:33;97175.13;;;7.13;61.17
41102;BME280;26845;50.190;19.178;2023-03-14T00:23:59;97164.98;;;7.16;61.38
41102;BME280;26845;50.190;19.178;2023-03-14T00:26:26;97155.87;;;7.22;61.52
41102;BME280;26845;50.190;19.178;2023-03-14T00:28:53;97141.63;;;7.25;61.57
41102;BME280;26845;50.190;19.178;2023-03-14T00:31:18;97124.33;;;7.27;61.83
41102;BME280;26845;50.190;19.178;2023-03-14T00:33:45;97103.72;;;7.27;61.70
41102;BME280;26845;50.190;19.178;2023-03-14T00:36:13;97084.95;;;7.21;61.69
41102;BME280;26845;50.190;19.178;2023-03-14T00:38:40;97075.64;;;7.11;61.80
41102;BME280;26845;50.190;19.178;2023-03-14T00:41:11;97074.25;;;6.97;61.79
41102;BME280;26845;50.190;19.178;2023-03-14T00:43:37;97079.93;;;6.83;61.88
41102;BME280;26845;50.190;19.178;2023-03-14T00:46:04;97081.43;;;6.71;62.10
41102;BME280;26845;50.190;19.178;2023-03-14T00:48:31;97078.84;;;6.52;62.33
41102;BME280;26845;50.190;19.178;2023-03-14T00:50:56;97080.45;;;6.39;62.55
41102;BME280;26845;50.190;19.178;2023-03-14T00:53:23;97072.30;;;6.26;62.53
41102;BME280;26845;50.190;19.178;2023-03-14T00:55:49;97060.14;;;6.21;62.79
41102;BME280;26845;50.190;19.178;2023-03-14T00:58:17;97050.55;;;6.16;62.90
41102;BME280;26845;50.190;19.178;2023-03-14T01:00:44;97034.96;;;6.14;63.09
41102;BME280;26845;50.190;19.178;2023-03-14T01:03:12;97038.07;;;6.05;63.20
41102;BME280;26845;50.190;19.178;2023-03-14T01:05:39;97048.58;;;5.91;63.40
41102;BME280;26845;50.190;19.178;2023-03-14T01:08:06;97046.61;;;5.68;63.99
41102;BME280;26845;50.190;19.178;2023-03-14T01:10:33;97035.10;;;5.28;63.75
41102;BME280;26845;50.190;19.178;2023-03-14T01:12:59;97028.60;;;5.09;64.00
41102;BME280;26845;50.190;19.178;2023-03-14T01:15:25;97028.80;;;5.10;64.34
41102;BME280;26845;50.190;19.178;2023-03-14T01:17:51;97038.35;;;5.06;64.25
41102;BME280;26845;50.190;19.178;2023-03-14T01:20:17;97043.36;;;4.93;64.50
41102;BME280;26845;50.190;19.178;2023-03-14T01:22:44;97045.66;;;4.90;64.63
41102;BME280;26845;50.190;19.178;2023-03-14T01:25:14;97046.99;;;4.97;64.76
41102;BME280;26845;50.190;19.178;2023-03-14T01:27:39;97032.71;;;5.08;65.13
41102;BME280;26845;50.190;19.178;2023-03-14T01:30:07;97019.59;;;5.17;65.13
41102;BME280;26845;50.190;19.178;2023-03-14T01:32:33;97010.80;;;5.14;64.95
41102;BME280;26845;50.190;19.178;2023-03-14T01:34:59;96991.24;;;5.18;65.34
41102;BME280;26845;50.190;19.178;2023-03-14T01:37:26;96980.64;;;5.24;65.33
41102;BME280;26845;50.190;19.178;2023-03-14T01:39:52;96974.66;;;5.28;65.41
41102;BME280;26845;50.190;19.178;2023-03-14T01:42:18;96967.89;;;5.30;65.53
41102;BME280;26845;50.190;19.178;2023-03-14T01:44:52;96961.52;;;5.26;65.55
41102;BME280;26845;50.190;19.178;2023-03-14T01:47:20;96950.03;;;5.15;65.51
41102;BME280;26845;50.190;19.178;2023-03-14T01:50:04;96946.41;;;5.08;65.51
41102;BME280;26845;50.190;19.178;2023-03-14T01:52:36;96934.38;;;4.90;65.57
41102;BME280;26845;50.190;19.178;2023-03-14T01:55:06;96927.07;;;4.85;65.96
41102;BME280;26845;50.190;19.178;2023-03-14T01:57:39;96921.59;;;4.86;66.10
41102;BME280;26845;50.190;19.178;2023-03-14T02:00:13;96913.29;;;4.78;66.11
41102;BME280;26845;50.190;19.178;2023-03-14T02:02:51;96917.48;;;4.73;66.22
41102;BME280;26845;50.190;19.178;2023-03-14T02:05:22;96914.41;;;4.67;66.44
41102;BME280;26845;50.190;19.178;2023-03-14T02:07:53;96925.71;;;4.67;66.62
41102;BME280;26845;50.190;19.178;2023-03-14T02:10:23;96923.78;;;4.66;66.53
41102;BME280;26845;50.190;19.178;2023-03-14T02:12:52;96927.56;;;4.59;66.94
41102;BME280;26845;50.190;19.178;2023-03-14T02:15:19;96933.44;;;4.38;67.16
41102;BME280;26845;50.190;19.178;2023-03-14T02:17:45;96930.23;;;4.19;67.47
41102;BME280;26845;50.190;19.178;2023-03-14T02:20:31;96932.14;;;4.21;67.77
41102;BME280;26845;50.190;19.178;2023-03-14T02:23:00;96927.15;;;4.33;67.89
41102;BME280;26845;50.190;19.178;2023-03-14T02:26:31;96923.72;;;4.38;68.05
41102;BME280;26845;50.190;19.178;2023-03-14T02:28:38;96919.86;;;4.47;67.99
41102;BME280;26845;50.190;19.178;2023-03-14T02:31:06;96920.83;;;4.62;68.12
41102;BME280;26845;50.190;19.178;2023-03-14T02:33:35;96914.77;;;4.75;68.03
41102;BME280;26845;50.190;19.178;2023-03-14T02:36:05;96914.75;;;4.86;68.15
41102;BME280;26845;50.190;19.178;2023-03-14T02:38:44;96921.13;;;4.95;68.15
41102;BME280;26845;50.190;19.178;2023-03-14T02:41:12;96919.30;;;5.07;68.18
41102;BME280;26845;50.190;19.178;2023-03-14T02:43:38;96923.27;;;5.16;68.29
41102;BME280;26845;50.190;19.178;2023-03-14T02:46:05;96920.81;;;5.24;68.12
41102;BME280;26845;50.190;19.178;2023-03-14T02:48:45;96922.04;;;5.28;68.17
41102;BME280;26845;50.190;19.178;2023-03-14T02:51:13;96922.87;;;5.30;68.06
41102;BME280;26845;50.190;19.178;2023-03-14T02:53:40;96917.58;;;5.35;68.35
41102;BME280;26845;50.190;19.178;2023-03-14T02:56:07;96913.90;;;5.43;68.42
41102;BME280;26845;50.190;19.178;2023-03-14T02:58:33;96915.69;;;5.48;68.23
41102;BME280;26845;50.190;19.178;2023-03-14T03:00:59;96915.39;;;5.50;68.22
41102;BME280;26845;50.190;19.178;2023-03-14T03:03:25;96914.79;;;5.54;68.42
41102;BME280;26845;50.190;19.178;2023-03-14T03:05:53;96919.94;;;5.57;68.27
41102;BME280;26845;50.190;19.178;2023-03-14T03:08:21;96922.06;;;5.53;68.27
41102;BME280;26845;50.190;19.178;2023-03-14T03:10:47;96923.58;;;5.55;68.39
41102;BME280;26845;50.190;19.178;2023-03-14T03:13:14;96931.19;;;5.58;68.40
41102;BME280;26845;50.190;19.178;2023-03-14T03:15:40;96936.35;;;5.62;68.32
41102;BME280;26845;50.190;19.178;2023-03-14T03:18:07;96937.85;;;5.63;68.42
41102;BME280;26845;50.190;19.178;2023-03-14T03:20:33;96938.52;;;5.63;68.22
41102;BME280;26845;50.190;19.178;2023-03-14T03:22:59;96939.89;;;5.65;68.55
41102;BME280;26845;50.190;19.178;2023-03-14T03:25:26;96929.15;;;5.69;68.48
41102;BME280;26845;50.190;19.178;2023-03-14T03:27:52;96929.13;;;5.68;68.43
41102;BME280;26845;50.190;19.178;2023-03-14T03:30:18;96932.78;;;5.73;68.75
41102;BME280;26845;50.190;19.178;2023-03-14T03:32:44;96934.57;;;5.72;68.41
41102;BME280;26845;50.190;19.178;2023-03-14T03:35:10;96929.96;;;5.65;68.53
41102;BME280;26845;50.190;19.178;2023-03-14T03:37:36;96921.80;;;5.62;68.47
41102;BME280;26845;50.190;19.178;2023-03-14T03:40:03;96929.67;;;5.60;68.51
41102;BME280;26845;50.190;19.178;2023-03-14T03:42:33;96941.89;;;5.55;68.44
41102;BME280;26845;50.190;19.178;2023-03-14T03:44:59;96948.91;;;5.38;68.44
41102;BME280;26845;50.190;19.178;2023-03-14T03:47:25;96957.82;;;5.24;68.74
41102;BME280;26845;50.190;19.178;2023-03-14T03:49:51;96978.89;;;5.10;69.74
41102;BME280;26845;50.190;19.178;2023-03-14T03:52:18;96985.55;;;4.77;69.07
41102;BME280;26845;50.190;19.178;2023-03-14T03:54:44;96988.89;;;4.73;69.46
41102;BME280;26845;50.190;19.178;2023-03-14T03:57:10;96989.83;;;4.80;69.78
41102;BME280;26845;50.190;19.178;2023-03-14T03:59:36;96996.52;;;4.89;69.77
41102;BME280;26845;50.190;19.178;2023-03-14T04:02:04;96993.52;;;4.90;69.64
41102;BME280;26845;50.190;19.178;2023-03-14T04:04:31;96990.64;;;4.98;69.70
41102;BME280;26845;50.190;19.178;2023-03-14T04:06:56;96984.52;;;5.07;69.85
41102;BME280;26845;50.190;19.178;2023-03-14T04:09:23;96984.46;;;5.16;70.01
41102;BME280;26845;50.190;19.178;2023-03-14T04:11:49;96982.41;;;5.29;70.03
41102;BME280;26845;50.190;19.178;2023-03-14T04:14:16;96978.09;;;5.38;70.03
41102;BME280;26845;50.190;19.178;2023-03-14T04:16:41;96970.10;;;5.44;69.89
41102;BME280;26845;50.190;19.178;2023-03-14T04:19:09;96966.28;;;5.53;69.88
41102;BME280;26845;50.190;19.178;2023-03-14T04:21:34;96972.19;;;5.60;69.97
41102;BME280;26845;50.190;19.178;2023-03-14T04:24:00;96965.79;;;5.63;69.90
41102;BME280;26845;50.190;19.178;2023-03-14T04:26:27;96965.65;;;5.66;69.95
41102;BME280;26845;50.190;19.178;2023-03-14T04:28:53;96956.69;;;5.70;70.11
41102;BME280;26845;50.190;19.178;2023-03-14T04:31:21;96956.17;;;5.69;70.25
41102;BME280;26845;50.190;19.178;2023-03-14T04:33:47;96952.81;;;5.64;70.10
41102;BME280;26845;50.190;19.178;2023-03-14T04:36:14;96954.59;;;5.59;70.24
41102;BME280;26845;50.190;19.178;2023-03-14T04:38:40;96957.85;;;5.52;70.10
41102;BME280;26845;50.190;19.178;2023-03-14T04:41:06;96959.39;;;5.46;70.12
41102;BME280;26845;50.190;19.178;2023-03-14T04:43:33;96955.33;;;5.34;70.05
41102;BME280;26845;50.190;19.178;2023-03-14T04:45:59;96951.31;;;5.21;70.25
41102;BME280;26845;50.190;19.178;2023-03-14T04:48:28;96946.54;;;5.04;70.32
41102;BME280;26845;50.190;19.178;2023-03-14T04:50:54;96942.94;;;4.81;70.31
41102;BME280;26845;50.190;19.178;2023-03-14T04:53:20;96931.80;;;4.71;70.80
41102;BME280;26845;50.190;19.178;2023-03-14T04:55:55;96927.04;;;4.74;70.97
41102;BME280;26845;50.190;19.178;2023-03-14T04:58:21;96914.16;;;4.79;71.11
41102;BME280;26845;50.190;19.178;2023-03-14T05:00:48;96913.52;;;4.79;71.13
41102;BME280;26845;50.190;19.178;2023-03-14T05:03:15;96910.61;;;4.81;71.26
41102;BME280;26845;50.190;19.178;2023-03-14T05:05:42;96911.98;;;4.78;71.26
41102;BME280;26845;50.190;19.178;2023-03-14T05:08:08;96921.05;;;4.71;71.14
41102;BME280;26845;50.190;19.178;2023-03-14T05:10:34;96919.61;;;4.64;71.15
41102;BME280;26845;50.190;19.178;2023-03-14T05:13:00;96918.17;;;4.58;71.25
41102;BME280;26845;50.190;19.178;2023-03-14T05:15:26;96911.95;;;4.53;71.38
41102;BME280;26845;50.190;19.178;2023-03-14T05:17:53;96909.52;;;4.45;71.33
41102;BME280;26845;50.190;19.178;2023-03-14T05:20:20;96909.16;;;4.33;71.49
41102;BME280;26845;50.190;19.178;2023-03-14T05:22:46;96909.24;;;4.23;71.72
41102;BME280;26845;50.190;19.178;2023-03-14T05:25:12;96900.02;;;4.12;71.87
41102;BME280;26845;50.190;19.178;2023-03-14T05:27:38;96891.53;;;4.07;72.13
41102;BME280;26845;50.190;19.178;2023-03-14T05:30:05;96889.73;;;4.07;72.51
41102;BME280;26845;50.190;19.178;2023-03-14T05:32:32;96879.64;;;4.10;72.68
41102;BME280;26845;50.190;19.178;2023-03-14T05:34:57;96876.45;;;4.16;72.77
41102;BME280;26845;50.190;19.178;2023-03-14T05:37:25;96876.02;;;4.22;72.87
41102;BME280;26845;50.190;19.178;2023-03-14T05:39:51;96864.74;;;4.36;73.28
41102;BME280;26845;50.190;19.178;2023-03-14T05:42:17;96858.22;;;4.59;73.23
41102;BME280;26845;50.190;19.178;2023-03-14T05:44:43;96862.58;;;4.67;73.06
41102;BME280;26845;50.190;19.178;2023-03-14T05:47:09;96859.07;;;4.81;73.18
41102;BME280;26845;50.190;19.178;2023-03-14T05:49:35;96868.73;;;4.89;73.08
41102;BME280;26845;50.190;19.178;2023-03-14T05:52:01;96880.55;;;4.97;73.21
41102;BME280;26845;50.190;19.178;2023-03-14T05:54:28;96881.66;;;5.04;73.33
41102;BME280;26845;50.190;19.178;2023-03-14T05:56:54;96881.73;;;5.13;73.22
41102;BME280;26845;50.190;19.178;2023-03-14T05:59:20;96875.12;;;5.17;73.15
41102;BME280;26845;50.190;19.178;2023-03-14T06:01:46;96869.02;;;5.23;73.12
41102;BME280;26845;50.190;19.178;2023-03-14T06:04:13;96869.57;;;5.26;73.18
41102;BME280;26845;50.190;19.178;2023-03-14T06:06:39;96872.54;;;5.27;73.08
41102;BME280;26845;50.190;19.178;2023-03-14T06:09:05;96876.94;;;5.25;73.29
41102;BME280;26845;50.190;19.178;2023-03-14T06:11:31;96869.97;;;5.25;73.33
41102;BME280;26845;50.190;19.178;2023-03-14T06:13:58;96864.08;;;5.31;73.49
41102;BME280;26845;50.190;19.178;2023-03-14T06:16:24;96862.02;;;5.37;73.57
41102;BME280;26845;50.190;19.178;2023-03-14T06:18:50;96868.97;;;5.45;73.60
41102;BME280;26845;50.190;19.178;2023-03-14T06:21:18;96864.00;;;5.52;73.86
41102;BME280;26845;50.190;19.178;2023-03-14T06:23:45;96862.30;;;5.57;73.90
41102;BME280;26845;50.190;19.178;2023-03-14T06:26:11;96861.52;;;5.61;73.81
41102;BME280;26845;50.190;19.178;2023-03-14T06:28:38;96855.89;;;5.76;73.79
41102;BME280;26845;50.190;19.178;2023-03-14T06:31:05;96850.16;;;5.88;74.06
41102;BME280;26845;50.190;19.178;2023-03-14T06:33:31;96842.74;;;6.01;73.98
41102;BME280;26845;50.190;19.178;2023-03-14T06:35:57;96834.05;;;6.15;73.62
41102;BME280;26845;50.190;19.178;2023-03-14T06:38:23;96832.98;;;6.28;73.79
41102;BME280;26845;50.190;19.178;2023-03-14T06:40:49;96826.75;;;6.39;73.59
41102;BME280;26845;50.190;19.178;2023-03-14T06:43:16;96828.67;;;6.53;73.59
41102;BME280;26845;50.190;19.178;2023-03-14T06:45:42;96826.95;;;6.75;73.54
41102;BME280;26845;50.190;19.178;2023-03-14T06:48:08;96826.05;;;6.96;73.60
41102;BME280;26845;50.190;19.178;2023-03-14T06:50:34;96821.89;;;7.16;73.51
41102;BME280;26845;50.190;19.178;2023-03-14T06:53:00;96819.80;;;7.36;73.52
41102;BME280;26845;50.190;19.178;2023-03-14T06:55:27;96815.18;;;7.54;73.30
41102;BME280;26845;50.190;19.178;2023-03-14T06:57:53;96808.64;;;7.69;73.28
41102;BME280;26845;50.190;19.178;2023-03-14T07:00:19;96807.16;;;7.82;73.02
41102;BME280;26845;50.190;19.178;2023-03-14T07:02:45;96804.41;;;7.96;72.96
41102;BME280;26845;50.190;19.178;2023-03-14T07:05:12;96800.64;;;8.09;72.95
41102;BME280;26845;50.190;19.178;2023-03-14T07:07:38;96798.16;;;8.27;72.62
41102;BME280;26845;50.190;19.178;2023-03-14T07:10:04;96789.15;;;8.43;72.94
41102;BME280;26845;50.190;19.178;2023-03-14T07:12:30;96794.25;;;8.55;72.73
41102;BME280;26845;50.190;19.178;2023-03-14T07:14:56;96792.48;;;8.72;72.30
41102;BME280;26845;50.190;19.178;2023-03-14T07:17:22;96794.98;;;8.90;72.22
41102;BME280;26845;50.190;19.178;2023-03-14T07:19:49;96798.83;;;9.07;71.96
41102;BME280;26845;50.190;19.178;2023-03-14T07:22:15;96792.36;;;9.24;72.06
41102;BME280;26845;50.190;19.178;2023-03-14T07:24:41;96796.21;;;9.38;71.65
41102;BME280;26845;50.190;19.178;2023-03-14T07:27:07;96797.27;;;9.54;71.76
41102;BME280;26845;50.190;19.178;2023-03-14T07:29:34;96808.34;;;9.70;71.05
41102;BME280;26845;50.190;19.178;2023-03-14T07:32:00;96820.93;;;9.90;70.43
41102;BME280;26845;50.190;19.178;2023-03-14T07:34:26;96818.40;;;10.11;70.59
41102;BME280;26845;50.190;19.178;2023-03-14T07:36:52;96812.69;;;10.31;69.94
41102;BME280;26845;50.190;19.178;2023-03-14T07:39:19;96819.51;;;10.53;68.37
41102;BME280;26845;50.190;19.178;2023-03-14T07:41:45;96832.11;;;10.76;68.63
41102;BME280;26845;50.190;19.178;2023-03-14T07:44:11;96837.83;;;10.95;65.53
41102;BME280;26845;50.190;19.178;2023-03-14T07:46:37;96830.68;;;11.16;66.73
41102;BME280;26845;50.190;19.178;2023-03-14T07:49:03;96830.87;;;11.30;66.61
41102;BME280;26845;50.190;19.178;2023-03-14T07:51:30;96830.48;;;11.40;65.44
41102;BME280;26845;50.190;19.178;2023-03-14T07:53:56;96836.64;;;11.52;63.92
41102;BME280;26845;50.190;19.178;2023-03-14T07:56:22;96851.14;;;11.62;63.62
41102;BME280;26845;50.190;19.178;2023-03-14T07:58:48;96846.11;;;11.75;64.03
41102;BME280;26845;50.190;19.178;2023-03-14T08:01:14;96851.67;;;11.88;62.18
41102;BME280;26845;50.190;19.178;2023-03-14T08:03:41;96841.89;;;12.02;62.00
41102;BME280;26845;50.190;19.178;2023-03-14T08:06:07;96840.58;;;12.16;62.13
41102;BME280;26845;50.190;19.178;2023-03-14T08:08:33;96846.45;;;12.25;61.79
41102;BME280;26845;50.190;19.178;2023-03-14T08:11:23;96845.05;;;12.39;61.57
41102;BME280;26845;50.190;19.178;2023-03-14T08:13:50;96841.23;;;12.56;62.18
41102;BME280;26845;50.190;19.178;2023-03-14T08:16:17;96843.91;;;12.72;61.19
41102;BME280;26845;50.190;19.178;2023-03-14T08:18:43;96834.02;;;12.83;61.25
41102;BME280;26845;50.190;19.178;2023-03-14T08:21:10;96827.98;;;12.97;59.32
41102;BME280;26845;50.190;19.178;2023-03-14T08:23:36;96835.60;;;13.03;58.30
41102;BME280;26845;50.190;19.178;2023-03-14T08:26:03;96828.26;;;13.08;57.45
41102;BME280;26845;50.190;19.178;2023-03-14T08:28:30;96833.85;;;13.17;56.85
41102;BME280;26845;50.190;19.178;2023-03-14T08:30:59;96819.55;;;13.27;57.98
41102;BME280;26845;50.190;19.178;2023-03-14T08:33:26;96823.11;;;13.39;58.18
41102;BME280;26845;50.190;19.178;2023-03-14T08:35:54;96830.20;;;13.54;56.97
41102;BME280;26845;50.190;19.178;2023-03-14T08:38:21;96832.98;;;13.62;54.36
41102;BME280;26845;50.190;19.178;2023-03-14T08:40:54;96834.38;;;13.58;53.53
41102;BME280;26845;50.190;19.178;2023-03-14T08:43:20;96839.50;;;13.52;55.42
41102;BME280;26845;50.190;19.178;2023-03-14T08:45:46;96853.47;;;13.39;53.11
41102;BME280;26845;50.190;19.178;2023-03-14T08:48:13;96866.46;;;13.24;53.78
41102;BME280;26845;50.190;19.178;2023-03-14T08:50:39;96871.06;;;13.17;54.36
41102;BME280;26845;50.190;19.178;2023-03-14T08:53:05;96863.65;;;13.16;55.62
41102;BME280;26845;50.190;19.178;2023-03-14T08:55:31;96873.88;;;13.19;54.63
41102;BME280;26845;50.190;19.178;2023-03-14T08:57:58;96868.73;;;13.15;55.62
41102;BME280;26845;50.190;19.178;2023-03-14T09:00:25;96866.64;;;13.13;55.73
41102;BME280;26845;50.190;19.178;2023-03-14T09:02:51;96863.91;;;13.05;55.37
41102;BME280;26845;50.190;19.178;2023-03-14T09:05:17;96869.82;;;12.93;54.55
41102;BME280;26845;50.190;19.178;2023-03-14T09:07:43;96872.77;;;12.81;56.14
41102;BME280;26845;50.190;19.178;2023-03-14T09:10:10;96887.50;;;12.75;55.71
41102;BME280;26845;50.190;19.178;2023-03-14T09:12:36;96877.25;;;12.70;55.66
41102;BME280;26845;50.190;19.178;2023-03-14T09:15:03;96873.66;;;12.64;55.78
41102;BME280;26845;50.190;19.178;2023-03-14T09:17:29;96878.56;;;12.61;56.34
41102;BME280;26845;50.190;19.178;2023-03-14T09:19:55;96888.56;;;12.64;56.89
41102;BME280;26845;50.190;19.178;2023-03-14T09:22:21;96887.53;;;12.65;55.68
41102;BME280;26845;50.190;19.178;2023-03-14T09:24:47;96892.92;;;12.63;55.38
41102;BME280;26845;50.190;19.178;2023-03-14T09:27:14;96894.52;;;12.58;55.66
41102;BME280;26845;50.190;19.178;2023-03-14T09:29:40;96897.50;;;12.55;56.04
41102;BME280;26845;50.190;19.178;2023-03-14T09:32:06;96890.27;;;12.56;55.94
41102;BME280;26845;50.190;19.178;2023-03-14T09:34:35;96886.92;;;12.56;56.68
41102;BME280;26845;50.190;19.178;2023-03-14T09:37:01;96879.95;;;12.64;56.44
41102;BME280;26845;50.190;19.178;2023-03-14T09:39:28;96890.46;;;12.70;54.99
41102;BME280;26845;50.190;19.178;2023-03-14T09:41:56;96880.30;;;12.71;55.97
41102;BME280;26845;50.190;19.178;2023-03-14T09:44:29;96881.91;;;12.78;55.22
41102;BME280;26845;50.190;19.178;2023-03-14T09:47:00;96886.70;;;12.92;54.53
41102;BME280;26845;50.190;19.178;2023-03-14T09:49:34;96891.92;;;13.08;54.95
41102;BME280;26845;50.190;19.178;2023-03-14T09:52:05;96893.13;;;13.27;54.71
41102;BME280;26845;50.190;19.178;2023-03-14T09:55:03;96898.46;;;13.34;55.06
41102;BME280;26845;50.190;19.178;2023-03-14T09:57:34;96900.69;;;13.55;55.42
41102;BME280;26845;50.190;19.178;2023-03-14T10:00:03;96892.79;;;13.78;56.15
41102;BME280;26845;50.190;19.178;2023-03-14T10:05:40;96885.11;;;14.02;54.41
41102;BME280;26845;50.190;19.178;2023-03-14T10:08:10;96902.04;;;14.13;54.21
41102;BME280;26845;50.190;19.178;2023-03-14T10:10:36;96919.22;;;14.15;52.93
41102;BME280;26845;50.190;19.178;2023-03-14T10:13:32;96915.77;;;14.04;54.39
41102;BME280;26845;50.190;19.178;2023-03-14T10:16:03;96908.98;;;14.04;54.65
41102;BME280;26845;50.190;19.178;2023-03-14T10:18:34;96909.73;;;14.08;54.12
41102;BME280;26845;50.190;19.178;2023-03-14T10:21:27;96922.84;;;14.11;54.91
41102;BME280;26845;50.190;19.178;2023-03-14T10:23:53;96931.34;;;14.06;53.14
41102;BME280;26845;50.190;19.178;2023-03-14T10:26:30;96928.67;;;13.94;54.75
41102;BME280;26845;50.190;19.178;2023-03-14T10:29:18;96931.52;;;13.90;54.29
41102;BME280;26845;50.190;19.178;2023-03-14T10:34:39;96919.46;;;13.72;54.55
41102;BME280;26845;50.190;19.178;2023-03-14T10:37:22;96917.77;;;13.64;54.78
41102;BME280;26845;50.190;19.178;2023-03-14T10:39:53;96919.85;;;13.57;54.94
41102;BME280;26845;50.190;19.178;2023-03-14T10:42:30;96915.73;;;13.52;55.69
41102;BME280;26845;50.190;19.178;2023-03-14T10:45:01;96914.26;;;13.48;55.51
41102;BME280;26845;50.190;19.178;2023-03-14T10:47:28;96907.19;;;13.44;55.38
41102;BME280;26845;50.190;19.178;2023-03-14T10:49:57;96904.65;;;13.38;55.42
41102;BME280;26845;50.190;19.178;2023-03-14T10:52:47;96902.91;;;13.31;55.46
41102;BME280;26845;50.190;19.178;2023-03-14T10:55:14;96899.48;;;13.25;55.67
41102;BME280;26845;50.190;19.178;2023-03-14T10:57:41;96900.74;;;13.19;55.62
41102;BME280;26845;50.190;19.178;2023-03-14T11:00:33;96891.98;;;13.14;55.92
41102;BME280;26845;50.190;19.178;2023-03-14T11:03:08;96891.28;;;13.08;55.90
41102;BME280;26845;50.190;19.178;2023-03-14T11:08:45;96881.54;;;12.99;56.09
41102;BME280;26845;50.190;19.178;2023-03-14T11:11:23;96884.75;;;12.96;56.11
41102;BME280;26845;50.190;19.178;2023-03-14T11:20:23;96887.52;;;12.87;56.56
41102;BME280;26845;50.190;19.178;2023-03-14T11:23:16;96896.81;;;12.86;56.56
41102;BME280;26845;50.190;19.178;2023-03-14T11:26:17;96904.02;;;12.82;56.71
41102;BME280;26845;50.190;19.178;2023-03-14T11:28:52;96894.86;;;12.77;57.07
41102;BME280;26845;50.190;19.178;2023-03-14T11:34:17;96896.79;;;12.67;57.68
41102;BME280;26845;50.190;19.178;2023-03-14T11:36:55;96895.45;;;12.56;58.13
41102;BME280;26845;50.190;19.178;2023-03-14T11:39:26;96906.55;;;12.48;58.31
41102;BME280;26845;50.190;19.178;2023-03-14T11:41:57;96908.04;;;12.40;58.54
41102;BME280;26845;50.190;19.178;2023-03-14T11:44:31;96908.27;;;12.35;58.90
41102;BME280;26845;50.190;19.178;2023-03-14T11:47:20;96906.38;;;12.31;59.27
41102;BME280;26845;50.190;19.178;2023-03-14T11:49:57;96911.40;;;12.26;59.31
41102;BME280;26845;50.190;19.178;2023-03-14T11:52:37;96908.83;;;12.24;59.62
41102;BME280;26845;50.190;19.178;2023-03-14T11:55:32;96908.21;;;12.21;59.89
41102;BME280;26845;50.190;19.178;2023-03-14T11:58:12;96905.15;;;12.19;60.03
41102;BME280;26845;50.190;19.178;2023-03-14T12:00:40;96894.45;;;12.16;60.07
41102;BME280;26845;50.190;19.178;2023-03-14T12:03:39;96890.60;;;12.14;60.31
41102;BME280;26845;50.190;19.178;2023-03-14T12:08:48;96895.42;;;12.12;60.11
41102;BME280;26845;50.190;19.178;2023-03-14T12:14:26;96886.93;;;12.09;60.08
41102;BME280;26845;50.190;19.178;2023-03-14T12:17:40;96873.55;;;12.07;60.27
41102;BME280;26845;50.190;19.178;2023-03-14T12:19:41;96869.91;;;12.05;60.61
41102;BME280;26845;50.190;19.178;2023-03-14T12:25:04;96859.98;;;11.99;60.38
41102;BME280;26845;50.190;19.178;2023-03-14T12:30:41;96867.99;;;11.98;60.60
41102;BME280;26845;50.190;19.178;2023-03-14T12:33:26;96864.79;;;11.97;60.56
41102;BME280;26845;50.190;19.178;2023-03-14T12:36:02;96870.16;;;11.95;60.52
41102;BME280;26845;50.190;19.178;2023-03-14T12:38:43;96869.34;;;11.93;60.70
41102;BME280;26845;50.190;19.178;2023-03-14T12:41:51;96872.79;;;11.90;60.90
41102;BME280;26845;50.190;19.178;2023-03-14T12:44:50;96879.16;;;11.86;60.85
41102;BME280;26845;50.190;19.178;2023-03-14T12:49:53;96866.81;;;11.81;61.33
41102;BME280;26845;50.190;19.178;2023-03-14T12:52:56;96856.79;;;11.76;61.35
41102;BME280;26845;50.190;19.178;2023-03-14T12:55:36;96855.81;;;11.71;61.70
41102;BME280;26845;50.190;19.178;2023-03-14T12:58:25;96859.63;;;11.66;61.83
41102;BME280;26845;50.190;19.178;2023-03-14T13:01:03;96860.05;;;11.62;62.08
41102;BME280;26845;50.190;19.178;2023-03-14T13:03:52;96863.48;;;11.58;62.10
41102;BME280;26845;50.190;19.178;2023-03-14T13:06:54;96868.21;;;11.57;62.14
41102;BME280;26845;50.190;19.178;2023-03-14T13:09:55;96865.05;;;11.53;62.44
41102;BME280;26845;50.190;19.178;2023-03-14T13:12:50;96870.38;;;11.49;63.01
41102;BME280;26845;50.190;19.178;2023-03-14T13:15:21;96870.16;;;11.46;63.13
41102;BME280;26845;50.190;19.178;2023-03-14T13:17:49;96873.05;;;11.47;62.82
41102;BME280;26845;50.190;19.178;2023-03-14T13:20:26;96869.02;;;11.48;63.02
41102;BME280;26845;50.190;19.178;2023-03-14T13:22:57;96873.44;;;11.51;63.48
41102;BME280;26845;50.190;19.178;2023-03-14T13:25:23;96881.22;;;11.51;63.47
41102;BME280;26845;50.190;19.178;2023-03-14T13:27:55;96888.70;;;11.52;63.27
41102;BME280;26845;50.190;19.178;2023-03-14T13:30:24;96884.77;;;11.53;63.40
41102;BME280;26845;50.190;19.178;2023-03-14T13:32:52;96885.33;;;11.54;63.80
41102;BME280;26845;50.190;19.178;2023-03-14T13:35:29;96884.92;;;11.53;63.78
41102;BME280;26845;50.190;19.178;2023-03-14T13:37:57;96889.49;;;11.51;64.54
41102;BME280;26845;50.190;19.178;2023-03-14T13:40:32;96894.90;;;11.47;64.74
41102;BME280;26845;50.190;19.178;2023-03-14T13:46:22;96909.11;;;11.41;65.20